Time;durP1;ratioP1;P1;durP2;ratioP2;P2;SDS_P1;SDS_P2;PMS_P1;PMS_P2;Temp;Humidity;BMP_temperature;BMP_pressure;BME280_temperature;BME280_humidity;BME280_pressure;Samples;Min_cycle;Max_cycle;Signal;HPM_P1;HPM_P2
2023/10/25 00:01:13;;;;;;;16.60;11.70;;;;;;;14.55;63.49;98790.36;109711;1252;59056;-52
2023/10/25 00:03:40;;;;;;;19.60;12.20;;;;;;;14.68;63.25;98785.60;109629;1251;74566;-52
2023/10/25 00:06:06;;;;;;;14.50;10.60;;;;;;;14.71;63.01;98779.54;109793;1251;67773;-52
2023/10/25 00:08:33;;;;;;;19.30;12.50;;;;;;;14.68;63.12;98774.27;109539;1250;72681;-52
2023/10/25 00:11:04;;;;;;;16.70;10.70;;;;;;;14.66;63.07;98765.54;109741;1251;60800;-50
2023/10/25 00:13:31;;;;;;;17.10;12.20;;;;;;;14.70;62.80;98760.34;109765;1251;58906;-52
2023/10/25 00:15:58;;;;;;;18.60;12.70;;;;;;;14.74;62.66;98756.73;109777;1251;74464;-52
2023/10/25 00:18:24;;;;;;;18.00;11.80;;;;;;;14.85;62.10;98755.33;109636;1253;67365;-52
2023/10/25 00:20:51;;;;;;;16.00;13.10;;;;;;;14.88;61.84;98755.71;109587;1254;71550;-52
2023/10/25 00:23:21;;;;;;;17.80;10.90;;;;;;;14.88;61.84;98746.83;109494;1257;61715;-53
2023/10/25 00:25:49;;;;;;;16.10;11.10;;;;;;;14.91;61.52;98741.38;109603;1253;60037;-53
2023/10/25 00:28:16;;;;;;;21.00;12.70;;;;;;;14.97;61.38;98738.06;109537;1253;74542;-51
2023/10/25 00:30:44;;;;;;;18.30;12.50;;;;;;;15.01;61.02;98730.64;109639;1253;68780;-49
2023/10/25 00:33:11;;;;;;;16.90;12.00;;;;;;;14.97;61.11;98728.39;109420;1252;72577;-50
2023/10/25 00:35:37;;;;;;;20.00;12.40;;;;;;;14.96;61.05;98723.27;109746;1250;61657;-50
2023/10/25 00:38:05;;;;;;;18.30;11.20;;;;;;;14.98;61.02;98724.53;109725;1251;59972;-51
2023/10/25 00:40:32;;;;;;;17.90;12.40;;;;;;;15.12;60.39;98729.15;109784;1251;74687;-51
2023/10/25 00:43:20;;;;;;;19.50;12.50;;;;;;;15.21;59.99;98719.93;109613;1250;67395;-51
2023/10/25 00:46:24;;;;;;;19.90;12.90;;;;;;;15.18;60.00;98715.95;109573;1254;71213;-52
2023/10/25 00:48:53;;;;;;;17.50;11.30;;;;;;;15.15;60.03;98709.40;109045;1258;61854;-52
2023/10/25 00:51:21;;;;;;;15.00;10.80;;;;;;;15.16;60.07;98701.40;108893;1257;60169;-53
2023/10/25 00:53:53;;;;;;;15.60;12.30;;;;;;;15.11;60.18;98698.64;109097;1257;73611;-52
2023/10/25 00:56:26;;;;;;;19.00;12.60;;;;;;;15.15;60.27;98698.27;109060;1258;68593;-51
2023/10/25 00:58:54;;;;;;;19.30;13.50;;;;;;;13.17;69.06;98688.75;109106;1257;72505;-52
2023/10/25 01:01:22;;;;;;;17.50;12.70;;;;;;;11.60;82.41;98678.33;109049;1257;61702;-50
2023/10/25 01:03:52;;;;;;;17.20;11.10;;;;;;;11.41;85.85;98679.84;109046;1257;58925;-51
2023/10/25 01:06:19;;;;;;;17.50;12.90;;;;;;;11.49;87.04;98672.86;109072;1257;74538;-52
2023/10/25 01:08:46;;;;;;;19.00;12.30;;;;;;;11.36;88.14;98671.23;109072;1258;67497;-52
2023/10/25 01:11:12;;;;;;;19.60;13.10;;;;;;;11.46;88.21;98666.11;108944;1257;71866;-52
2023/10/25 01:13:39;;;;;;;16.10;11.40;;;;;;;11.42;89.13;98667.66;109083;1257;61681;-50
2023/10/25 01:16:05;;;;;;;16.50;11.90;;;;;;;11.45;89.12;98662.03;109049;1257;59990;-50
2023/10/25 01:18:33;;;;;;;21.60;12.10;;;;;;;11.46;89.40;98655.52;109009;1260;73432;-50
2023/10/25 01:21:00;;;;;;;18.20;12.50;;;;;;;11.44;89.69;98645.59;108861;1259;68731;-50
2023/10/25 01:23:27;;;;;;;16.70;9.70;;;;;;;11.44;90.18;98644.04;109027;1260;71527;-50
2023/10/25 01:25:54;;;;;;;14.70;11.80;;;;;;;11.43;90.39;98639.70;109543;1253;58883;-50
2023/10/25 01:28:21;;;;;;;20.10;12.40;;;;;;;11.44;90.89;98637.27;109286;1252;60849;-50
2023/10/25 01:30:47;;;;;;;19.40;11.90;;;;;;;11.44;90.71;98636.58;109620;1253;73200;-51
2023/10/25 01:33:14;;;;;;;18.80;11.70;;;;;;;11.45;91.07;98633.55;109534;1252;68327;-52
2023/10/25 01:35:41;;;;;;;18.40;11.50;;;;;;;11.44;91.32;98632.00;109711;1250;72412;-51
2023/10/25 01:38:09;;;;;;;18.60;13.40;;;;;;;11.41;91.80;98627.25;109337;1251;60721;-51
2023/10/25 01:40:35;;;;;;;18.50;12.50;;;;;;;11.45;91.68;98624.30;109737;1254;60136;-51
2023/10/25 01:43:02;;;;;;;18.10;11.80;;;;;;;11.45;91.79;98622.75;109762;1251;73176;-50
2023/10/25 01:45:30;;;;;;;15.80;11.50;;;;;;;11.45;92.17;98621.03;109722;1251;68450;-49
2023/10/25 01:47:56;;;;;;;16.50;12.00;;;;;;;11.45;92.14;98615.88;109742;1251;71801;-52
2023/10/25 01:50:23;;;;;;;15.90;10.90;;;;;;;11.48;92.18;98616.48;109735;1251;61619;-50
2023/10/25 01:52:50;;;;;;;15.90;10.80;;;;;;;11.49;92.25;98617.29;109716;1251;59097;-50
2023/10/25 01:55:17;;;;;;;17.90;12.80;;;;;;;11.51;92.40;98616.59;109788;1250;74431;-50
2023/10/25 01:57:44;;;;;;;21.40;13.40;;;;;;;11.52;92.28;98610.48;109598;1251;67747;-49
2023/10/25 02:00:11;;;;;;;20.10;11.40;;;;;;;11.54;92.38;98604.99;109700;1251;70133;-50
2023/10/25 02:02:41;;;;;;;21.80;13.50;;;;;;;11.56;92.90;98603.59;109753;1251;60705;-50
2023/10/25 02:05:08;;;;;;;15.80;11.40;;;;;;;11.58;92.83;98602.16;109751;1250;60472;-50
2023/10/25 02:07:35;;;;;;;23.60;11.20;;;;;;;11.57;93.19;98592.98;109786;1251;74012;-51
2023/10/25 02:10:02;;;;;;;15.60;11.40;;;;;;;11.55;93.46;98589.93;109256;1251;68852;-51
2023/10/25 02:12:29;;;;;;;19.00;11.90;;;;;;;11.57;93.80;98585.98;109562;1251;72559;-52
2023/10/25 02:14:56;;;;;;;16.30;12.00;;;;;;;11.60;93.84;98586.06;109624;1251;60167;-51
2023/10/25 02:17:23;;;;;;;15.80;11.60;;;;;;;11.60;94.25;98582.67;109673;1254;60197;-52
2023/10/25 02:19:50;;;;;;;18.00;11.70;;;;;;;11.59;95.13;98573.70;109607;1253;74485;-52
2023/10/25 02:22:16;;;;;;;18.30;11.90;;;;;;;11.59;95.35;98562.54;109386;1252;68575;-51
2023/10/25 02:24:43;;;;;;;18.40;11.90;;;;;;;11.58;95.64;98556.94;109404;1254;72526;-51
2023/10/25 02:27:10;;;;;;;18.10;11.50;;;;;;;11.57;95.92;98550.14;109466;1253;61758;-51
2023/10/25 02:29:36;;;;;;;16.20;11.20;;;;;;;11.59;95.98;98549.58;109507;1253;60237;-50
2023/10/25 02:32:07;;;;;;;19.30;11.70;;;;;;;11.61;96.07;98545.78;109510;1254;73272;-51
2023/10/25 02:34:35;;;;;;;18.70;11.70;;;;;;;11.58;96.51;98543.52;109666;1251;68701;-51
2023/10/25 02:37:02;;;;;;;18.90;12.20;;;;;;;11.61;96.92;98541.80;109715;1251;71541;-50
2023/10/25 02:39:29;;;;;;;17.30;12.00;;;;;;;11.59;97.63;98540.06;109558;1251;60905;-51
2023/10/25 02:41:56;;;;;;;16.20;11.10;;;;;;;11.60;97.89;98532.90;109778;1250;58856;-52
2023/10/25 02:44:22;;;;;;;15.60;11.60;;;;;;;11.56;98.51;98535.31;109731;1251;73558;-51
2023/10/25 02:46:49;;;;;;;15.50;10.30;;;;;;;11.50;99.59;98532.90;109732;1251;67725;-51
2023/10/25 02:49:15;;;;;;;18.70;11.20;;;;;;;11.42;100.00;98532.11;109745;1251;72526;-52
2023/10/25 02:51:42;;;;;;;19.40;13.60;;;;;;;11.34;100.00;98525.05;109629;1251;60512;-51
2023/10/25 02:54:09;;;;;;;16.90;11.90;;;;;;;11.32;100.00;98518.89;109717;1251;59025;-50
2023/10/25 02:56:36;;;;;;;17.10;12.20;;;;;;;11.32;100.00;98516.73;109786;1250;73589;-51
2023/10/25 02:59:04;;;;;;;17.70;13.30;;;;;;;11.29;100.00;98514.67;109751;1251;68650;-51
2023/10/25 03:01:30;;;;;;;20.10;13.20;;;;;;;11.26;100.00;98514.23;109708;1251;71651;-52
2023/10/25 03:03:57;;;;;;;19.10;13.00;;;;;;;11.21;100.00;98515.14;109732;1251;61311;-51
2023/10/25 03:06:24;;;;;;;15.80;12.40;;;;;;;11.23;100.00;98513.18;109741;1251;60102;-52
2023/10/25 03:08:51;;;;;;;20.60;12.80;;;;;;;11.23;100.00;98508.93;109559;1251;73622;-52
2023/10/25 03:11:18;;;;;;;18.90;12.40;;;;;;;11.21;100.00;98498.41;109752;1251;68518;-52
2023/10/25 03:13:45;;;;;;;21.70;13.20;;;;;;;11.19;100.00;98498.13;109747;1250;72513;-51
2023/10/25 03:16:13;;;;;;;20.00;10.80;;;;;;;11.19;100.00;98496.23;109692;1251;60656;-52
2023/10/25 03:18:42;;;;;;;18.20;12.40;;;;;;;11.16;100.00;98488.59;109585;1251;59147;-51
2023/10/25 03:21:08;;;;;;;19.20;13.00;;;;;;;11.21;100.00;98497.66;109494;1254;74362;-52
2023/10/25 03:23:35;;;;;;;19.30;12.70;;;;;;;11.19;100.00;98497.46;109527;1251;67757;-52
2023/10/25 03:26:04;;;;;;;20.80;13.50;;;;;;;11.17;100.00;98497.02;109549;1252;72563;-51
2023/10/25 03:28:31;;;;;;;19.90;13.40;;;;;;;11.13;100.00;98498.27;109479;1251;60711;-52
2023/10/25 03:30:58;;;;;;;18.10;13.30;;;;;;;11.09;100.00;98495.31;109476;1252;60357;-52
2023/10/25 03:33:25;;;;;;;21.30;14.80;;;;;;;11.05;100.00;98487.98;109604;1252;73893;-53
2023/10/25 03:35:53;;;;;;;22.30;14.60;;;;;;;11.05;100.00;98492.39;109459;1251;67937;-52
2023/10/25 03:38:20;;;;;;;20.30;13.70;;;;;;;11.01;100.00;98482.77;109657;1251;72466;-53
2023/10/25 03:40:47;;;;;;;20.20;13.20;;;;;;;11.01;100.00;98481.85;109740;1251;60578;-53
2023/10/25 03:43:14;;;;;;;21.70;16.60;;;;;;;10.89;100.00;98479.27;109745;1251;58933;-53
2023/10/25 03:45:40;;;;;;;22.00;14.50;;;;;;;10.75;100.00;98475.79;109723;1250;73480;-54
2023/10/25 03:48:07;;;;;;;20.00;14.70;;;;;;;11.11;100.00;98469.80;109722;1251;67387;-54
2023/10/25 03:50:36;;;;;;;20.10;15.30;;;;;;;11.97;100.00;98474.11;109702;1251;71134;-53
2023/10/25 03:53:02;;;;;;;23.50;16.00;;;;;;;11.95;100.00;98467.41;109748;1251;61832;-54
2023/10/25 03:55:30;;;;;;;27.60;16.70;;;;;;;11.87;100.00;98455.52;109674;1251;58932;-54
2023/10/25 03:57:56;;;;;;;22.90;16.20;;;;;;;11.95;100.00;98456.39;109746;1250;74473;-53
2023/10/25 04:00:23;;;;;;;21.90;17.50;;;;;;;12.03;100.00;98454.82;109183;1250;68791;-53
2023/10/25 04:02:50;;;;;;;37.10;18.70;;;;;;;12.00;100.00;98450.66;109732;1251;72501;-52
2023/10/25 04:05:17;;;;;;;24.20;17.00;;;;;;;11.94;100.00;98444.40;109741;1250;61104;-52
2023/10/25 04:07:44;;;;;;;28.20;17.70;;;;;;;12.07;100.00;98434.86;109785;1250;60276;-52
2023/10/25 04:10:11;;;;;;;24.60;16.90;;;;;;;12.03;100.00;98431.27;109721;1250;72766;-52
2023/10/25 04:12:38;;;;;;;24.20;15.60;;;;;;;11.97;100.00;98427.58;109763;1250;68827;-52
2023/10/25 04:15:05;;;;;;;25.30;15.90;;;;;;;11.99;100.00;98420.30;109735;1250;71513;-52
2023/10/25 04:17:32;;;;;;;21.40;16.00;;;;;;;11.94;100.00;98416.92;109629;1251;60714;-54
2023/10/25 04:19:58;;;;;;;25.30;18.10;;;;;;;11.84;100.00;98409.73;109410;1254;59477;-54
2023/10/25 04:22:25;;;;;;;27.10;18.00;;;;;;;11.72;100.00;98402.34;109593;1253;74647;-54
2023/10/25 04:24:52;;;;;;;24.60;16.70;;;;;;;11.64;100.00;98403.42;109540;1252;68448;-53
2023/10/25 04:27:18;;;;;;;24.10;17.90;;;;;;;11.61;100.00;98393.78;109573;1253;71388;-53
2023/10/25 04:29:45;;;;;;;29.40;19.80;;;;;;;11.59;100.00;98390.80;109520;1252;61774;-53
2023/10/25 04:32:11;;;;;;;27.30;17.50;;;;;;;11.68;100.00;98389.77;109424;1252;155434;-53
2023/10/25 04:34:38;;;;;;;29.30;19.90;;;;;;;11.87;100.00;98383.72;109343;1251;74668;-53
2023/10/25 04:37:05;;;;;;;25.60;18.90;;;;;;;12.05;100.00;98381.00;109765;1251;68646;-54
2023/10/25 04:39:32;;;;;;;26.30;19.20;;;;;;;12.00;100.00;98379.02;109742;1251;71705;-54
2023/10/25 04:41:58;;;;;;;31.10;20.10;;;;;;;11.75;100.00;98376.50;109712;1250;60477;-54
2023/10/25 04:44:27;;;;;;;24.10;18.00;;;;;;;11.79;100.00;98371.38;109517;1250;60097;-54
2023/10/25 04:46:54;;;;;;;21.60;15.90;;;;;;;11.92;100.00;98369.89;109767;1250;73289;-53
2023/10/25 04:49:20;;;;;;;24.90;18.20;;;;;;;11.84;100.00;98367.52;109557;1251;68817;-53
2023/10/25 04:51:47;;;;;;;23.30;17.20;;;;;;;11.85;100.00;98368.90;109617;1250;72486;-54
2023/10/25 04:54:14;;;;;;;25.40;16.20;;;;;;;11.99;100.00;98363.30;109577;1250;61783;-52
2023/10/25 04:56:40;;;;;;;21.80;16.60;;;;;;;11.94;100.00;98362.55;109580;1250;60546;-53
2023/10/25 04:59:07;;;;;;;26.60;16.90;;;;;;;12.01;100.00;98358.95;109572;1251;74452;-53
2023/10/25 05:01:34;;;;;;;20.60;15.20;;;;;;;12.02;100.00;98355.65;109544;1250;68530;-53
2023/10/25 05:04:00;;;;;;;24.40;17.40;;;;;;;12.04;100.00;98353.05;109572;1250;72482;-55
2023/10/25 05:06:27;;;;;;;25.70;17.10;;;;;;;12.05;100.00;98352.60;109722;1250;60410;-52
2023/10/25 05:08:54;;;;;;;21.10;13.40;;;;;;;12.00;100.00;98347.73;109625;1251;59048;-53
2023/10/25 05:11:21;;;;;;;23.60;16.70;;;;;;;12.09;100.00;98338.98;109820;1250;73759;-53
2023/10/25 05:13:48;;;;;;;23.50;16.20;;;;;;;12.15;100.00;98343.73;109599;1251;68809;-53
2023/10/25 05:16:14;;;;;;;18.50;14.10;;;;;;;12.14;100.00;98340.25;109729;1251;72684;-54
2023/10/25 05:18:42;;;;;;;23.90;15.60;;;;;;;12.17;100.00;98342.09;109238;1254;60816;-54
2023/10/25 05:21:08;;;;;;;27.40;17.60;;;;;;;12.07;100.00;98338.20;109301;1253;59042;-55
2023/10/25 05:23:35;;;;;;;21.80;14.90;;;;;;;12.10;100.00;98339.94;109509;1253;74455;-54
2023/10/25 05:26:03;;;;;;;26.10;16.20;;;;;;;12.18;100.00;98336.09;109578;1253;68510;-54
2023/10/25 05:28:31;;;;;;;22.90;16.50;;;;;;;12.25;100.00;98338.62;109429;1252;71158;-54
2023/10/25 05:31:02;;;;;;;25.50;17.30;;;;;;;12.16;100.00;98336.29;109287;1253;61676;-54
2023/10/25 05:33:32;;;;;;;27.70;17.30;;;;;;;12.11;100.00;98337.02;109080;1252;60099;-53
2023/10/25 05:36:02;;;;;;;32.10;19.00;;;;;;;12.05;100.00;98329.95;109639;1250;74440;-54
2023/10/25 05:38:29;;;;;;;32.80;19.30;;;;;;;12.12;100.00;98333.19;109293;1250;68264;-54
2023/10/25 05:40:56;;;;;;;31.80;18.60;;;;;;;12.10;100.00;98330.25;109381;1251;72375;-54
2023/10/25 05:43:24;;;;;;;36.60;17.60;;;;;;;12.13;100.00;98331.45;109472;1251;60739;-54
2023/10/25 05:45:50;;;;;;;23.00;11.90;;;;;;;12.03;100.00;98325.48;109554;1251;61353;-54
2023/10/25 05:48:17;;;;;;;19.70;11.60;;;;;;;11.94;100.00;98320.23;109747;1250;73454;-54
2023/10/25 05:50:45;;;;;;;23.50;15.80;;;;;;;11.98;100.00;98312.38;109790;1250;67293;-54
2023/10/25 05:53:13;;;;;;;22.60;15.40;;;;;;;12.03;100.00;98310.77;109630;1251;71858;-55
2023/10/25 05:55:41;;;;;;;22.00;14.20;;;;;;;12.22;100.00;98308.54;109447;1251;61765;-55
2023/10/25 05:58:08;;;;;;;22.50;14.30;;;;;;;12.12;100.00;98304.83;109396;1253;58995;-54
2023/10/25 06:00:35;;;;;;;15.90;11.70;;;;;;;12.12;100.00;98296.65;109645;1250;74833;-54
2023/10/25 06:03:02;;;;;;;17.50;13.20;;;;;;;12.17;100.00;98293.73;109670;1250;68406;-54
2023/10/25 06:05:33;;;;;;;15.70;11.20;;;;;;;12.24;100.00;98288.55;109634;1250;70720;-54
2023/10/25 06:08:00;;;;;;;14.60;12.20;;;;;;;12.33;100.00;98290.48;109610;1251;60534;-55
2023/10/25 06:10:27;;;;;;;17.80;11.20;;;;;;;12.38;100.00;98285.67;109632;1251;58987;-54
2023/10/25 06:12:56;;;;;;;17.20;12.20;;;;;;;12.40;100.00;98283.00;109406;1251;73273;-55
2023/10/25 06:15:23;;;;;;;17.50;12.50;;;;;;;12.42;100.00;98282.69;109591;1251;68617;-54
2023/10/25 06:17:51;;;;;;;13.70;11.40;;;;;;;12.41;100.00;98279.55;109564;1252;71276;-54
2023/10/25 06:20:20;;;;;;;16.80;12.00;;;;;;;12.44;100.00;98278.46;109568;1252;61917;-54
2023/10/25 06:22:47;;;;;;;14.30;10.70;;;;;;;12.51;100.00;98272.48;109550;1251;59087;-54
2023/10/25 06:25:14;;;;;;;13.50;10.70;;;;;;;12.38;100.00;98270.18;109550;1252;74560;-54
2023/10/25 06:27:40;;;;;;;14.20;10.00;;;;;;;12.45;100.00;98270.95;109410;1253;68462;-54
2023/10/25 06:30:08;;;;;;;12.10;9.20;;;;;;;12.59;100.00;98264.78;109474;1252;73062;-52
2023/10/25 06:32:34;;;;;;;16.20;8.60;;;;;;;12.49;100.00;98260.92;109489;1252;62047;-55
2023/10/25 06:35:02;;;;;;;12.00;10.20;;;;;;;12.51;100.00;98264.81;109354;1252;60021;-54
2023/10/25 06:37:29;;;;;;;11.20;9.00;;;;;;;12.56;100.00;98260.53;109548;1252;74574;-55
2023/10/25 06:39:56;;;;;;;12.70;9.40;;;;;;;12.56;100.00;98264.46;109387;1251;68554;-54
2023/10/25 06:42:23;;;;;;;13.60;10.40;;;;;;;12.55;100.00;98262.86;109561;1252;71776;-54
2023/10/25 06:44:51;;;;;;;12.80;8.50;;;;;;;12.60;100.00;98260.73;109517;1252;61665;-55
2023/10/25 06:47:17;;;;;;;11.90;9.20;;;;;;;12.55;100.00;98260.92;109577;1252;60074;-54
2023/10/25 06:49:45;;;;;;;12.00;8.90;;;;;;;12.49;100.00;98254.95;109361;1252;72237;-55
2023/10/25 06:52:11;;;;;;;9.60;7.10;;;;;;;12.56;100.00;98250.85;109566;1252;67191;-55
2023/10/25 06:54:38;;;;;;;13.40;9.30;;;;;;;12.50;100.00;98254.55;109576;1252;71214;-55
2023/10/25 06:57:05;;;;;;;9.50;8.40;;;;;;;12.51;100.00;98252.11;109489;1252;61728;-54
2023/10/25 06:59:32;;;;;;;12.90;7.80;;;;;;;12.62;100.00;98251.27;109331;1252;58939;-54
2023/10/25 07:02:18;;;;;;;8.80;6.90;;;;;;;12.52;100.00;98244.30;109563;1252;74444;-54
2023/10/25 07:04:46;;;;;;;8.60;7.70;;;;;;;12.52;100.00;98247.19;109466;1252;68731;-55
2023/10/25 07:07:12;;;;;;;10.20;8.00;;;;;;;12.55;100.00;98237.45;109567;1253;71500;-54
2023/10/25 07:09:41;;;;;;;12.70;9.70;;;;;;;12.63;100.00;98237.19;109223;1252;61752;-54
2023/10/25 07:12:07;;;;;;;13.10;7.50;;;;;;;12.64;100.00;98225.87;109573;1252;58969;-54
2023/10/25 07:14:34;;;;;;;13.00;8.40;;;;;;;12.73;100.00;98230.48;109555;1251;74510;-54
2023/10/25 07:17:01;;;;;;;9.90;7.80;;;;;;;12.86;100.00;98222.20;109519;1251;67448;-54
2023/10/25 07:19:28;;;;;;;8.30;7.50;;;;;;;12.73;100.00;98213.89;109512;1252;71400;-54
2023/10/25 07:21:54;;;;;;;12.40;8.10;;;;;;;12.68;100.00;98211.37;109345;1251;61583;-53
2023/10/25 07:24:21;;;;;;;14.00;9.00;;;;;;;12.82;100.00;98206.86;109740;1250;59054;-53
2023/10/25 07:26:48;;;;;;;14.30;9.60;;;;;;;12.83;100.00;98205.66;109764;1250;73072;-53
2023/10/25 07:29:15;;;;;;;11.30;8.90;;;;;;;12.74;100.00;98202.30;109760;1250;68743;-53
2023/10/25 07:31:41;;;;;;;13.00;9.70;;;;;;;12.72;100.00;98204.37;109399;1251;72725;-53
2023/10/25 07:34:08;;;;;;;10.90;8.40;;;;;;;12.71;100.00;98208.50;109606;1251;61949;-53
2023/10/25 07:36:35;;;;;;;11.50;9.00;;;;;;;12.82;100.00;98199.23;109742;1250;60632;-53
2023/10/25 07:39:01;;;;;;;12.90;9.00;;;;;;;12.87;100.00;98195.13;109757;1250;74648;-52
2023/10/25 07:41:28;;;;;;;11.50;8.90;;;;;;;12.87;100.00;98190.95;109366;1251;67300;-56
2023/10/25 07:43:55;;;;;;;9.80;8.50;;;;;;;12.98;100.00;98193.87;109702;1250;71378;-54
2023/10/25 07:46:22;;;;;;;10.50;8.40;;;;;;;12.91;100.00;98184.66;109712;1250;61314;-53
2023/10/25 07:48:50;;;;;;;9.10;8.20;;;;;;;12.97;100.00;98190.02;109685;1250;59029;-53
2023/10/25 07:51:17;;;;;;;10.80;8.70;;;;;;;12.85;100.00;98186.14;109779;1250;74455;-53
2023/10/25 07:53:44;;;;;;;13.00;7.70;;;;;;;13.02;100.00;98182.81;109381;1251;68948;-53
2023/10/25 07:56:10;;;;;;;8.30;7.40;;;;;;;13.07;100.00;98166.48;109753;1250;71176;-55
2023/10/25 07:58:58;;;;;;;11.90;8.80;;;;;;;13.08;100.00;98173.84;109666;1250;61749;-54
2023/10/25 08:01:25;;;;;;;10.40;8.90;;;;;;;13.11;100.00;98172.63;109460;1251;60553;-54
2023/10/25 08:03:51;;;;;;;11.70;8.70;;;;;;;13.03;100.00;98163.18;109653;1250;74622;-57
2023/10/25 08:06:18;;;;;;;11.40;9.20;;;;;;;13.03;100.00;98160.20;109721;1250;67880;-56
2023/10/25 08:08:45;;;;;;;9.70;8.30;;;;;;;13.10;100.00;98161.25;109724;1250;72669;-57
2023/10/25 08:11:12;;;;;;;9.70;7.70;;;;;;;13.10;100.00;98159.72;109713;1250;61651;-55
2023/10/25 08:13:40;;;;;;;11.40;8.20;;;;;;;13.01;100.00;98159.77;109731;1250;62238;-56
2023/10/25 08:16:07;;;;;;;8.90;7.70;;;;;;;13.04;100.00;98151.77;109761;1250;74678;-55
2023/10/25 08:18:33;;;;;;;9.60;8.20;;;;;;;13.05;100.00;98147.99;109547;1250;68534;-55
2023/10/25 08:21:00;;;;;;;12.90;10.20;;;;;;;13.09;100.00;98144.67;109550;1252;71864;-56
2023/10/25 08:23:28;;;;;;;9.70;7.70;;;;;;;13.19;100.00;98140.02;109502;1252;60880;-56
2023/10/25 08:26:00;;;;;;;13.00;10.80;;;;;;;13.17;100.00;98135.16;109548;1252;59506;-56
2023/10/25 08:28:26;;;;;;;13.10;10.60;;;;;;;13.29;100.00;98127.63;109563;1252;73570;-56
2023/10/25 08:30:53;;;;;;;10.60;9.50;;;;;;;13.34;100.00;98126.57;109505;1253;68555;-56
2023/10/25 08:33:20;;;;;;;10.90;9.00;;;;;;;13.43;100.00;98127.83;109625;1250;70474;-56
2023/10/25 08:35:47;;;;;;;9.70;8.70;;;;;;;13.25;100.00;98119.02;109585;1251;61793;-58
2023/10/25 08:38:14;;;;;;;9.40;7.50;;;;;;;13.13;100.00;98115.06;109641;1250;58990;-57
2023/10/25 08:40:41;;;;;;;13.20;9.50;;;;;;;13.25;100.00;98115.42;109358;1251;74673;-55
2023/10/25 08:43:08;;;;;;;8.40;6.70;;;;;;;13.26;100.00;98118.80;109572;1252;68776;-56
2023/10/25 08:45:35;;;;;;;11.80;8.80;;;;;;;13.31;100.00;98120.96;109526;1252;71172;-56
2023/10/25 08:48:03;;;;;;;9.50;8.50;;;;;;;13.46;100.00;98109.02;109372;1251;61093;-56
2023/10/25 08:50:30;;;;;;;;;;;;;;;13.56;100.00;98098.42;109585;1251;59004;-57
2023/10/25 08:52:57;;;;;;;11.50;9.10;;;;;;;13.57;100.00;98092.24;109793;1250;74666;-56
2023/10/25 08:55:24;;;;;;;11.60;8.90;;;;;;;13.53;100.00;98084.64;109746;1251;68718;-56
2023/10/25 08:57:57;;;;;;;11.00;9.20;;;;;;;13.53;100.00;98084.42;109435;1250;71951;-55
2023/10/25 09:00:28;;;;;;;9.70;8.40;;;;;;;13.47;100.00;98084.83;109621;1250;60715;-55
2023/10/25 09:03:31;;;;;;;8.80;7.40;;;;;;;13.43;100.00;98080.63;109548;1252;59023;-56
2023/10/25 09:05:59;;;;;;;10.50;8.90;;;;;;;13.48;100.00;98077.64;109331;1252;74713;-54
2023/10/25 09:08:26;;;;;;;8.80;7.90;;;;;;;13.50;100.00;98073.80;109607;1250;67747;-55
2023/10/25 09:11:08;;;;;;;11.70;9.30;;;;;;;13.58;100.00;98066.55;109527;1252;72984;-55
2023/10/25 09:13:42;;;;;;;10.80;9.50;;;;;;;13.64;100.00;98063.41;109563;1252;60990;-55
2023/10/25 09:16:11;;;;;;;10.30;9.10;;;;;;;13.69;100.00;98062.42;109582;1252;58817;-54
2023/10/25 09:18:38;;;;;;;9.20;8.10;;;;;;;13.79;100.00;98062.81;109301;1253;74492;-55
2023/10/25 09:21:06;;;;;;;10.90;8.80;;;;;;;13.84;100.00;98053.79;109656;1250;68923;-55
2023/10/25 09:23:36;;;;;;;8.80;7.90;;;;;;;13.79;100.00;98048.70;109663;1250;72550;-55
2023/10/25 09:26:13;;;;;;;8.60;7.70;;;;;;;13.77;100.00;98039.08;109174;1250;60713;-55
2023/10/25 09:28:40;;;;;;;12.80;10.80;;;;;;;13.83;100.00;98035.17;109723;1250;58995;-55
2023/10/25 09:31:19;;;;;;;15.00;12.30;;;;;;;13.84;100.00;98031.55;109661;1250;73525;-55
2023/10/25 09:33:47;;;;;;;11.10;8.90;;;;;;;13.86;100.00;98027.79;109680;1251;67579;-55
2023/10/25 09:36:13;;;;;;;15.90;12.40;;;;;;;13.86;100.00;98029.08;109450;1251;72620;-55
2023/10/25 09:38:40;;;;;;;13.20;10.40;;;;;;;13.74;100.00;98022.60;109691;1250;62053;-55
2023/10/25 09:41:08;;;;;;;17.20;12.90;;;;;;;13.70;100.00;98026.42;109644;1254;60331;-57
2023/10/25 09:43:34;;;;;;;17.20;12.80;;;;;;;13.78;100.00;98020.77;109403;1250;73617;-55
2023/10/25 09:46:02;;;;;;;13.30;10.30;;;;;;;13.79;100.00;98016.83;109486;1250;67514;-56
2023/10/25 09:48:29;;;;;;;15.30;9.70;;;;;;;13.73;100.00;98012.55;109590;1250;72578;-56
2023/10/25 09:51:09;;;;;;;15.90;12.70;;;;;;;13.73;100.00;98005.83;109700;1250;60385;-56
2023/10/25 09:53:46;;;;;;;11.90;10.00;;;;;;;13.74;100.00;98001.57;109651;1251;60108;-57
2023/10/25 09:56:13;;;;;;;16.10;12.50;;;;;;;13.72;100.00;97984.15;109364;1250;74731;-56
2023/10/25 09:58:39;;;;;;;13.10;11.70;;;;;;;13.74;100.00;97978.06;109398;1251;68908;-57
2023/10/25 10:01:08;;;;;;;24.60;19.30;;;;;;;13.74;100.00;97980.66;109684;1250;71436;-56
2023/10/25 10:03:44;;;;;;;13.10;11.70;;;;;;;13.88;100.00;97982.11;109715;1250;62033;-56
2023/10/25 10:06:36;;;;;;;22.00;15.70;;;;;;;13.87;100.00;97970.96;109623;1250;59090;-56
2023/10/25 10:09:14;;;;;;;15.70;12.80;;;;;;;13.79;100.00;97967.80;109639;1250;73387;-56
2023/10/25 10:11:45;;;;;;;13.70;9.10;;;;;;;13.80;100.00;97959.98;109273;1251;68759;-56
2023/10/25 10:14:35;;;;;;;14.50;11.40;;;;;;;14.07;100.00;97957.55;109618;1251;72581;-59
2023/10/25 10:17:06;;;;;;;13.00;10.40;;;;;;;14.11;100.00;97954.29;109669;1251;61016;-56
2023/10/25 10:19:33;;;;;;;13.40;11.70;;;;;;;14.11;100.00;97950.63;109743;1250;59095;-56
2023/10/25 10:22:07;;;;;;;10.80;9.10;;;;;;;14.28;100.00;97940.61;109522;1251;73262;-56
2023/10/25 10:24:53;;;;;;;7.90;7.10;;;;;;;14.25;100.00;97937.30;109653;1250;68443;-56
2023/10/25 10:27:23;;;;;;;10.70;8.00;;;;;;;14.31;100.00;97937.59;109712;1250;72549;-56
2023/10/25 10:29:50;;;;;;;9.40;8.50;;;;;;;14.30;100.00;97935.91;109554;1253;62033;-56
2023/10/25 10:32:17;;;;;;;7.70;6.80;;;;;;;14.35;100.00;97932.42;109661;1251;60331;-57
2023/10/25 10:34:56;;;;;;;10.20;9.10;;;;;;;14.35;100.00;97926.29;109668;1250;74854;-55
2023/10/25 10:37:24;;;;;;;7.70;6.90;;;;;;;14.40;100.00;97918.86;109736;1250;66395;-56
2023/10/25 10:39:57;;;;;;;;;;;;;;;14.39;100.00;97915.55;109746;1250;72609;-57
2023/10/25 10:42:30;;;;;;;8.00;6.40;;;;;;;14.49;100.00;97910.63;109620;1250;61957;-56
2023/10/25 10:45:04;;;;;;;10.50;6.80;;;;;;;14.61;100.00;97904.00;109673;1250;59425;-56
2023/10/25 10:47:43;;;;;;;7.20;6.50;;;;;;;14.59;100.00;97894.73;109662;1250;74623;-58
2023/10/25 10:50:15;;;;;;;7.40;6.70;;;;;;;14.71;100.00;97895.61;109522;1252;68809;-57
2023/10/25 10:52:43;;;;;;;6.70;6.00;;;;;;;14.73;100.00;97897.95;109535;1252;72702;-56
2023/10/25 10:55:15;;;;;;;8.10;7.30;;;;;;;14.75;100.00;97897.55;109568;1251;62084;-58
2023/10/25 10:57:42;;;;;;;6.40;5.80;;;;;;;14.73;100.00;97897.63;109084;1253;60146;-56
2023/10/25 11:00:29;;;;;;;8.40;7.60;;;;;;;14.79;100.00;97898.05;109595;1253;73630;-56
2023/10/25 11:02:56;;;;;;;8.90;8.00;;;;;;;14.83;100.00;97895.29;109543;1254;67547;-56
2023/10/25 11:05:23;;;;;;;8.00;6.70;;;;;;;14.82;100.00;97889.75;109567;1253;72668;-56
2023/10/25 11:07:50;;;;;;;8.20;7.40;;;;;;;14.81;100.00;97886.23;109555;1252;60767;-56
2023/10/25 11:10:17;;;;;;;7.20;6.50;;;;;;;14.86;100.00;97880.63;109583;1252;58987;-57
2023/10/25 11:12:44;;;;;;;6.40;5.80;;;;;;;14.75;100.00;97873.64;109577;1252;74729;-56